createdAt,value
2023-04-24T00:00:06.882Z,4.57
2023-04-24T00:04:12.183Z,4.50
2023-04-24T00:08:15.289Z,4.97
2023-04-24T00:12:18.031Z,4.47
2023-04-24T00:16:21.072Z,4.50
2023-04-24T00:20:25.290Z,4.50
2023-04-24T00:24:28.805Z,5.07
2023-04-24T00:28:31.854Z,8.00
2023-04-24T00:32:35.094Z,6.70
2023-04-24T00:36:39.401Z,7.00
2023-04-24T00:40:43.564Z,6.87
2023-04-24T00:44:46.690Z,8.07
2023-04-24T00:48:49.553Z,8.00
2023-04-24T00:52:53.798Z,8.40
2023-04-24T00:56:57.901Z,8.63
2023-04-24T01:01:02.114Z,10.93
2023-04-24T01:05:06.116Z,10.37
2023-04-24T01:09:12.550Z,9.90
2023-04-24T01:13:16.015Z,10.00
2023-04-24T01:17:21.424Z,9.90
2023-04-24T01:21:28.841Z,10.03
2023-04-24T01:25:40.254Z,9.60
2023-04-24T01:29:45.245Z,8.87
2023-04-24T01:33:48.729Z,7.27
2023-04-24T01:37:52.552Z,7.17
2023-04-24T01:41:56.935Z,6.43
2023-04-24T01:45:59.738Z,6.07
2023-04-24T01:50:03.526Z,6.47
2023-04-24T01:54:06.787Z,6.03
2023-04-24T01:58:11.437Z,6.10
2023-04-24T02:02:14.297Z,6.80
2023-04-24T02:06:17.136Z,7.23
2023-04-24T02:10:20.119Z,8.87
2023-04-24T02:14:24.174Z,10.40
2023-04-24T02:18:26.907Z,10.10
2023-04-24T02:22:43.858Z,10.23
2023-04-24T02:27:18.891Z,11.67
2023-04-24T02:31:22.956Z,11.40
2023-04-24T02:35:25.643Z,12.57
2023-04-24T02:39:28.411Z,12.63
2023-04-24T02:43:31.432Z,11.80
2023-04-24T02:47:35.801Z,12.53
2023-04-24T02:51:41.651Z,12.20
2023-04-24T02:55:44.633Z,13.33
2023-04-24T02:59:47.294Z,11.93
2023-04-24T03:03:51.520Z,12.50
2023-04-24T03:07:54.956Z,13.97
2023-04-24T03:11:59.304Z,13.87
2023-04-24T03:16:02.477Z,13.37
2023-04-24T03:20:09.052Z,15.87
2023-04-24T03:24:13.742Z,20.70
2023-04-24T03:28:16.549Z,14.77
2023-04-24T03:32:44.136Z,14.27
2023-04-24T03:36:51.764Z,16.40
2023-04-24T03:40:54.606Z,15.53
2023-04-24T03:45:14.872Z,16.03
2023-04-24T03:49:21.855Z,15.07
2023-04-24T03:53:27.620Z,17.47
2023-04-24T03:57:31.854Z,15.47
2023-04-24T04:01:46.937Z,15.57
2023-04-24T04:05:52.146Z,18.87
2023-04-24T04:09:56.474Z,17.60
2023-04-24T04:14:00.190Z,19.40
2023-04-24T04:18:03.954Z,20.73
2023-04-24T04:22:09.010Z,19.73
2023-04-24T04:26:26.434Z,22.63
2023-04-24T04:30:54.617Z,24.37
2023-04-24T04:35:04.438Z,22.63
2023-04-24T04:39:09.898Z,19.97
2023-04-24T04:43:39.162Z,21.27
2023-04-24T04:47:56.680Z,20.60
2023-04-24T04:52:15.386Z,22.77
2023-04-24T04:56:32.941Z,22.80
2023-04-24T05:00:59.461Z,22.80
2023-04-24T05:05:07.748Z,22.30
2023-04-24T05:09:11.372Z,22.00
2023-04-24T05:13:39.138Z,22.53
2023-04-24T05:17:57.991Z,20.27
2023-04-24T05:22:07.510Z,22.03
2023-04-24T05:26:16.478Z,22.57
2023-04-24T05:30:19.273Z,21.37
2023-04-24T05:34:23.543Z,26.80
2023-04-24T05:38:30.655Z,22.23
2023-04-24T05:42:33.581Z,21.57
2023-04-24T05:46:36.419Z,24.03
2023-04-24T05:50:40.966Z,22.37
2023-04-24T05:54:43.846Z,25.17
2023-04-24T05:58:49.628Z,22.57
2023-04-24T06:02:53.832Z,23.70
2023-04-24T06:06:59.367Z,19.93
2023-04-24T06:11:04.414Z,19.97
2023-04-24T06:15:12.630Z,19.87
2023-04-24T06:19:32.913Z,20.07
2023-04-24T06:23:53.554Z,21.50
2023-04-24T06:28:15.296Z,24.83
2023-04-24T06:32:18.179Z,19.23
2023-04-24T06:36:20.963Z,19.50
2023-04-24T06:40:25.523Z,20.40
2023-04-24T06:44:28.231Z,17.70
2023-04-24T06:48:31.305Z,15.33
2023-04-24T06:52:33.976Z,16.03
2023-04-24T06:56:38.571Z,15.17
2023-04-24T07:00:41.313Z,15.03
2023-04-24T07:04:44.197Z,15.80
2023-04-24T07:08:47.476Z,14.90
2023-04-24T07:12:51.659Z,12.47
2023-04-24T07:16:54.716Z,13.63
2023-04-24T07:21:03.342Z,12.47
2023-04-24T07:25:07.059Z,12.33
2023-04-24T07:29:11.202Z,11.07
2023-04-24T07:33:14.787Z,11.57
2023-04-24T07:37:17.640Z,11.53
2023-04-24T07:41:21.708Z,11.07
2023-04-24T07:45:27.205Z,11.63
2023-04-24T07:50:01.531Z,12.47
2023-04-24T07:54:04.285Z,12.10
2023-04-24T07:58:25.770Z,11.77
2023-04-24T08:02:30.325Z,12.40
2023-04-24T08:06:33.839Z,11.47
2023-04-24T08:10:36.586Z,13.07
2023-04-24T08:14:39.343Z,12.73
2023-04-24T08:18:43.498Z,10.10
2023-04-24T08:22:48.160Z,11.80
2023-04-24T08:26:52.501Z,10.23
2023-04-24T08:30:56.644Z,9.03
2023-04-24T08:35:01.382Z,10.87
2023-04-24T08:39:04.242Z,9.93
2023-04-24T08:43:07.276Z,10.60
2023-04-24T08:47:10.581Z,9.87
2023-04-24T08:51:14.637Z,8.70
2023-04-24T08:55:19.095Z,10.10
2023-04-24T08:59:23.517Z,7.87
2023-04-24T09:03:29.807Z,7.27
2023-04-24T09:07:37.519Z,10.53
2023-04-24T09:11:40.879Z,8.10
2023-04-24T09:15:43.628Z,8.30
2023-04-24T09:19:46.393Z,7.87
2023-04-24T09:23:59.869Z,6.40
2023-04-24T09:28:04.642Z,6.80
2023-04-24T09:32:22.563Z,5.20
2023-04-24T09:36:35.070Z,3.03
2023-04-24T09:40:41.108Z,3.57
2023-04-24T09:44:45.472Z,7.47
2023-04-24T09:48:48.206Z,9.20
2023-04-24T09:52:59.264Z,8.80
2023-04-24T09:57:03.570Z,9.30
2023-04-24T10:01:07.126Z,11.30
2023-04-24T10:05:13.303Z,11.83
2023-04-24T10:09:16.149Z,13.57
2023-04-24T10:13:20.824Z,15.73
2023-04-24T10:17:24.804Z,16.07
2023-04-24T10:21:28.398Z,14.33
2023-04-24T10:25:33.549Z,14.93
2023-04-24T10:29:37.955Z,17.23
2023-04-24T10:33:42.433Z,15.60
2023-04-24T10:37:50.737Z,14.97
2023-04-24T10:41:53.516Z,12.30
2023-04-24T10:46:04.839Z,16.57
2023-04-24T10:50:10.578Z,13.47
2023-04-24T10:54:25.348Z,16.50
2023-04-24T10:58:39.419Z,13.77
2023-04-24T11:02:49.910Z,8.37
2023-04-24T11:06:54.871Z,8.07
2023-04-24T11:11:00.988Z,8.13
2023-04-24T11:15:04.318Z,9.93
2023-04-24T11:19:10.046Z,8.67
2023-04-24T11:23:14.858Z,7.87
2023-04-24T11:27:20.633Z,11.30
2023-04-24T11:31:43.139Z,10.97
2023-04-24T11:35:47.389Z,8.27
2023-04-24T11:39:53.151Z,11.50
2023-04-24T11:43:58.278Z,12.43
2023-04-24T11:48:01.671Z,12.63
2023-04-24T11:52:07.150Z,9.77
2023-04-24T11:56:11.419Z,12.87
2023-04-24T12:00:19.947Z,10.93
2023-04-24T12:04:23.148Z,6.60
2023-04-24T12:08:32.068Z,5.83
2023-04-24T12:12:34.765Z,8.97
2023-04-24T12:16:37.925Z,6.97
2023-04-24T12:20:42.680Z,4.63
2023-04-24T12:25:03.804Z,6.80
2023-04-24T12:29:06.690Z,7.27
2023-04-24T12:33:09.798Z,4.27
2023-04-24T12:37:13.925Z,4.47
2023-04-24T12:41:20.278Z,6.93
2023-04-24T12:45:26.170Z,7.07
2023-04-24T12:49:32.209Z,5.43
2023-04-24T12:53:35.448Z,7.00
2023-04-24T12:57:41.004Z,8.03
2023-04-24T13:01:44.229Z,9.37
2023-04-24T13:05:47.818Z,9.27
2023-04-24T13:10:06.398Z,9.13
2023-04-24T13:14:11.197Z,10.40
2023-04-24T13:18:26.395Z,6.40
2023-04-24T13:22:53.637Z,9.23
2023-04-24T13:27:24.399Z,5.57
2023-04-24T13:31:29.555Z,5.00
2023-04-24T13:35:32.386Z,4.50
2023-04-24T13:39:36.096Z,3.77
2023-04-24T13:43:38.925Z,4.63
2023-04-24T13:47:42.948Z,3.23
2023-04-24T13:51:46.865Z,4.13
2023-04-24T13:55:49.973Z,2.53
2023-04-24T13:59:52.675Z,4.67
2023-04-24T14:03:57.920Z,2.00
2023-04-24T14:08:01.848Z,2.30
2023-04-24T14:12:04.954Z,1.67
2023-04-24T14:16:10.764Z,2.40
2023-04-24T14:20:15.573Z,2.10
2023-04-24T14:24:18.318Z,2.47
2023-04-24T14:28:21.440Z,2.30
2023-04-24T14:32:27.509Z,2.50
2023-04-24T14:36:32.639Z,1.97
2023-04-24T14:41:04.858Z,2.37
2023-04-24T14:44:58.587Z,2.27
2023-04-24T14:49:01.301Z,4.37
2023-04-24T14:53:06.015Z,3.03
2023-04-24T14:57:09.481Z,6.63
2023-04-24T15:01:12.978Z,4.43
2023-04-24T15:05:16.587Z,4.00
2023-04-24T15:09:23.366Z,3.93
2023-04-24T15:13:27.608Z,3.90
2023-04-24T15:17:30.939Z,5.33
2023-04-24T15:21:33.915Z,7.83
2023-04-24T15:25:38.617Z,5.87
2023-04-24T15:29:42.051Z,5.77
2023-04-24T15:33:45.356Z,7.20
2023-04-24T15:37:48.685Z,8.20
2023-04-24T15:41:54.071Z,7.60
2023-04-24T15:45:57.555Z,5.33
2023-04-24T15:50:00.714Z,6.40
2023-04-24T15:54:04.057Z,6.13
2023-04-24T15:58:08.304Z,6.50
2023-04-24T16:02:18.828Z,6.30
2023-04-24T16:06:22.544Z,4.07
2023-04-24T16:10:26.845Z,5.30
2023-04-24T16:14:31.698Z,6.93
2023-04-24T16:18:35.479Z,7.37
2023-04-24T16:22:39.677Z,4.67
2023-04-24T16:26:43.659Z,4.70
2023-04-24T16:30:47.995Z,6.10
2023-04-24T16:34:50.821Z,5.80
2023-04-24T16:38:54.450Z,7.80
2023-04-24T16:42:58.490Z,5.27
2023-04-24T16:47:03.717Z,4.27
2023-04-24T16:51:07.305Z,6.50
2023-04-24T16:55:11.271Z,5.73
2023-04-24T16:59:14.041Z,6.10
2023-04-24T17:03:27.152Z,5.37
2023-04-24T17:07:31.066Z,5.60
2023-04-24T17:11:48.546Z,6.07
2023-04-24T17:15:51.514Z,6.23
2023-04-24T17:19:55.895Z,6.10
2023-04-24T17:24:02.149Z,6.23
2023-04-24T17:28:24.666Z,6.10
2023-04-24T17:32:38.435Z,7.63
2023-04-24T17:36:57.689Z,8.33
2023-04-24T17:41:16.533Z,5.37
2023-04-24T17:45:32.879Z,7.27
2023-04-24T17:49:48.261Z,8.03
2023-04-24T17:54:04.594Z,7.77
2023-04-24T17:58:20.448Z,8.07
2023-04-24T18:02:24.126Z,9.07
2023-04-24T18:06:30.682Z,6.27
2023-04-24T18:10:44.304Z,9.67
2023-04-24T18:14:53.019Z,8.53
2023-04-24T18:19:13.112Z,11.57
2023-04-24T18:23:25.151Z,8.73
2023-04-24T18:27:33.543Z,6.47
2023-04-24T18:31:42.258Z,6.60
2023-04-24T18:35:58.490Z,5.90
2023-04-24T18:40:15.843Z,7.90
2023-04-24T18:44:42.772Z,7.93
2023-04-24T18:49:01.977Z,7.30
2023-04-24T18:53:18.259Z,7.07
2023-04-24T18:57:28.497Z,9.20
2023-04-24T19:01:35.763Z,5.83
2023-04-24T19:05:39.168Z,8.70
2023-04-24T19:09:43.052Z,8.13
2023-04-24T19:13:54.744Z,7.40
2023-04-24T19:18:00.483Z,10.17
2023-04-24T19:22:07.645Z,8.63
2023-04-24T19:26:13.881Z,5.60
2023-04-24T19:30:17.323Z,11.67
2023-04-24T19:34:22.036Z,7.23
2023-04-24T19:38:26.472Z,11.17
2023-04-24T19:42:43.115Z,8.83
2023-04-24T19:46:47.526Z,11.87
2023-04-24T19:50:52.530Z,9.47
2023-04-24T19:54:55.374Z,12.40
2023-04-24T19:58:59.872Z,13.90
2023-04-24T20:03:04.021Z,7.83
2023-04-24T20:07:12.661Z,10.53
2023-04-24T20:11:38.557Z,8.67
2023-04-24T20:15:41.342Z,8.27
2023-04-24T20:19:45.073Z,11.87
2023-04-24T20:23:51.035Z,11.50
2023-04-24T20:27:54.339Z,13.60
2023-04-24T20:31:57.588Z,11.77
2023-04-24T20:36:01.533Z,12.53
2023-04-24T20:40:08.125Z,14.10
2023-04-24T20:44:11.704Z,10.37
2023-04-24T20:48:15.469Z,10.93
2023-04-24T20:52:18.523Z,10.87
2023-04-24T20:56:24.584Z,15.13
2023-04-24T21:00:27.529Z,13.27
2023-04-24T21:04:32.158Z,10.67
2023-04-24T21:08:36.641Z,9.97
2023-04-24T21:12:41.079Z,10.17
2023-04-24T21:16:43.905Z,12.53
2023-04-24T21:20:46.862Z,16.23
2023-04-24T21:24:51.957Z,11.90
2023-04-24T21:28:58.173Z,10.70
2023-04-24T21:33:01.182Z,9.00
2023-04-24T21:37:04.676Z,12.47
2023-04-24T21:41:07.632Z,11.23
2023-04-24T21:45:12.756Z,11.50
2023-04-24T21:49:16.368Z,12.67
2023-04-24T21:53:19.689Z,15.27
2023-04-24T21:57:22.827Z,13.07
2023-04-24T22:01:27.069Z,14.13
2023-04-24T22:05:30.814Z,11.70
2023-04-24T22:09:34.835Z,10.87
2023-04-24T22:13:37.851Z,11.67
2023-04-24T22:17:41.996Z,10.57
2023-04-24T22:21:44.861Z,11.90
2023-04-24T22:25:47.667Z,9.23
2023-04-24T22:29:50.941Z,12.87
2023-04-24T22:33:55.141Z,12.33
2023-04-24T22:37:59.126Z,10.83
2023-04-24T22:42:02.072Z,13.97
2023-04-24T22:46:05.322Z,7.53
2023-04-24T22:50:10.857Z,9.80
2023-04-24T22:54:13.846Z,13.30
2023-04-24T22:58:16.784Z,10.70
2023-04-24T23:02:19.600Z,13.57
2023-04-24T23:11:58.408Z,7.20
2023-04-24T23:16:01.117Z,10.13
2023-04-24T23:20:05.615Z,7.83
2023-04-24T23:24:08.580Z,8.00
2023-04-24T23:28:12.498Z,8.77
2023-04-24T23:32:15.473Z,8.60
2023-04-24T23:36:18.183Z,8.67
2023-04-24T23:40:51.938Z,12.20
2023-04-24T23:44:55.888Z,10.07
2023-04-24T23:48:58.773Z,14.30
2023-04-24T23:53:01.618Z,13.20
2023-04-24T23:57:04.668Z,8.57
